Wetterdaten: Woche 12.11.18 - 18.11.18 (KW46)
Datum Zeit Temp. A. Feuchte A. Luftdruck Regen Wind Richtung Taupunkt Windchill Windben
12.11.2018 00:00 5,7 C 81 % 1020,7 hPa 0,0 l/m 0,0 km/h N 2,7 C 5,7 C 0,0 km/h
12.11.2018 01:00 5,9 C 82 % 1021,1 hPa 0,0 l/m 0,0 km/h N 3,0 C 5,9 C 0,0 km/h
12.11.2018 02:00 6,6 C 82 % 1021,3 hPa 0,0 l/m 0,0 km/h N 3,8 C 6,6 C 0,0 km/h
12.11.2018 03:00 7,1 C 82 % 1021,4 hPa 0,0 l/m 0,0 km/h N 4,3 C 7,1 C 0,0 km/h
12.11.2018 04:00 7,2 C 82 % 1021,6 hPa 0,0 l/m 0,0 km/h N 4,3 C 7,2 C 0,0 km/h
12.11.2018 05:00 6,9 C 82 % 1021,7 hPa 0,0 l/m 0,0 km/h N 4,1 C 6,9 C 0,0 km/h
12.11.2018 06:00 7,0 C 82 % 1021,9 hPa 0,0 l/m 0,0 km/h N 4,1 C 7,0 C 0,0 km/h
12.11.2018 07:00 7,3 C 82 % 1022,0 hPa 0,0 l/m 0,0 km/h N 4,5 C 7,3 C 0,0 km/h
12.11.2018 08:00 7,4 C 82 % 1022,4 hPa 0,0 l/m 0,0 km/h N 4,6 C 7,4 C 0,0 km/h
12.11.2018 09:00 7,7 C 82 % 1022,6 hPa 0,3 l/m 0,0 km/h N 4,8 C 7,7 C 0,4 km/h
12.11.2018 10:00 8,1 C 82 % 1022,6 hPa 0,0 l/m 0,0 km/h N 5,2 C 8,1 C 1,6 km/h
12.11.2018 11:00 8,2 C 82 % 1022,5 hPa 0,0 l/m 0,0 km/h N 5,3 C 8,2 C 0,4 km/h
12.11.2018 12:00 8,4 C 82 % 1022,3 hPa 0,0 l/m 0,0 km/h N 5,6 C 8,4 C 1,2 km/h
12.11.2018 13:00 8,7 C 82 % 1021,9 hPa 0,0 l/m 0,1 km/h N 5,8 C 8,7 C 1,2 km/h
12.11.2018 14:00 8,8 C 82 % 1021,8 hPa 0,0 l/m 0,1 km/h N 5,9 C 8,8 C 1,6 km/h
12.11.2018 15:00 8,8 C 82 % 1021,9 hPa 0,0 l/m 0,0 km/h N 5,9 C 8,8 C 0,0 km/h
12.11.2018 16:00 8,8 C 82 % 1021,9 hPa 0,0 l/m 0,3 km/h N 5,9 C 8,8 C 1,6 km/h
12.11.2018 17:00 8,9 C 82 % 1021,9 hPa 0,0 l/m 0,0 km/h N 5,9 C 8,9 C 1,2 km/h
12.11.2018 18:00 9,0 C 82 % 1022,0 hPa 0,0 l/m 0,0 km/h N 6,1 C 9,0 C 0,4 km/h
12.11.2018 19:00 9,1 C 82 % 1022,3 hPa 0,0 l/m 0,0 km/h N 6,2 C 9,1 C 2,0 km/h
12.11.2018 20:00 9,2 C 82 % 1022,5 hPa 0,0 l/m 0,0 km/h N 6,3 C 9,2 C 0,8 km/h
12.11.2018 21:00 9,2 C 82 % 1023,0 hPa 0,0 l/m 0,2 km/h N 6,3 C 9,2 C 3,6 km/h
12.11.2018 22:00 9,2 C 82 % 1023,4 hPa 0,0 l/m 0,3 km/h N 6,3 C 9,2 C 3,6 km/h
12.11.2018 23:00 9,3 C 82 % 1023,6 hPa 0,0 l/m 0,6 km/h N 6,3 C 9,3 C 2,8 km/h
13.11.2018 00:00 9,2 C 82 % 1023,6 hPa 0,0 l/m 0,5 km/h N 6,3 C 9,2 C 4,4 km/h
13.11.2018 01:00 9,3 C 82 % 1023,7 hPa 0,0 l/m 0,1 km/h N 6,4 C 9,3 C 2,8 km/h
13.11.2018 02:00 9,1 C 82 % 1023,7 hPa 0,0 l/m 0,1 km/h N 6,2 C 9,1 C 2,0 km/h
13.11.2018 03:00 9,0 C 82 % 1023,7 hPa 0,0 l/m 0,3 km/h N 6,1 C 9,0 C 3,2 km/h
13.11.2018 04:00 8,8 C 82 % 1023,5 hPa 0,0 l/m 0,0 km/h N 5,9 C 8,8 C 0,4 km/h
13.11.2018 05:00 8,7 C 82 % 1023,4 hPa 0,3 l/m 0,0 km/h N 5,8 C 8,7 C 1,2 km/h
13.11.2018 06:00 8,6 C 82 % 1023,2 hPa 0,0 l/m 0,0 km/h N 5,7 C 8,6 C 0,0 km/h
13.11.2018 07:00 8,6 C 82 % 1023,5 hPa 0,0 l/m 0,0 km/h N 5,7 C 8,6 C 1,2 km/h
13.11.2018 08:00 8,9 C 82 % 1023,7 hPa 0,0 l/m 0,0 km/h N 6,0 C 8,9 C 0,4 km/h
13.11.2018 09:00 9,3 C 82 % 1023,9 hPa 0,0 l/m 0,0 km/h N 6,3 C 9,3 C 0,4 km/h
13.11.2018 10:00 9,5 C 82 % 1024,1 hPa 0,0 l/m 0,0 km/h N 6,6 C 9,5 C 0,8 km/h
13.11.2018 11:00 9,6 C 82 % 1024,7 hPa 0,0 l/m 0,8 km/h N 6,7 C 9,6 C 5,2 km/h
13.11.2018 12:00 9,4 C 82 % 1024,6 hPa 0,0 l/m 5,9 km/h N 6,5 C 9,3 C 16,5 km/h
13.11.2018 13:00 10,7 C 81 % 1024,3 hPa 0,0 l/m 5,7 km/h N 7,6 C 10,7 C 14,1 km/h
13.11.2018 14:00 10,9 C 81 % 1024,8 hPa 0,0 l/m 5,6 km/h N 7,7 C 10,9 C 18,5 km/h
13.11.2018 15:00 11,5 C 80 % 1025,0 hPa 0,0 l/m 3,4 km/h N 8,1 C 11,5 C 14,1 km/h
13.11.2018 16:00 12,9 C 76 % 1025,6 hPa 0,0 l/m 8,0 km/h N 8,8 C 12,0 C 31,0 km/h
13.11.2018 17:00 12,8 C 76 % 1026,5 hPa 0,0 l/m 9,6 km/h N 8,7 C 11,0 C 24,5 km/h
13.11.2018 18:00 12,3 C 78 % 1027,1 hPa 0,0 l/m 6,3 km/h N 8,6 C 11,8 C 19,7 km/h
13.11.2018 19:00 13,6 C 74 % 1027,4 hPa 0,0 l/m 9,8 km/h N 9,0 C 11,7 C 27,7 km/h
13.11.2018 20:00 13,4 C 74 % 1028,2 hPa 0,0 l/m 7,0 km/h N 8,9 C 12,9 C 22,5 km/h
13.11.2018 21:00 12,5 C 75 % 1028,6 hPa 0,0 l/m 6,7 km/h N 8,2 C 12,3 C 21,3 km/h
13.11.2018 22:00 11,8 C 76 % 1029,0 hPa 0,0 l/m 5,7 km/h N 7,7 C 11,7 C 18,5 km/h
13.11.2018 23:00 11,3 C 77 % 1029,4 hPa 0,0 l/m 4,4 km/h N 7,4 C 11,3 C 15,3 km/h
14.11.2018 00:00 11,0 C 78 % 1029,5 hPa 0,0 l/m 5,4 km/h N 7,3 C 10,9 C 15,7 km/h
14.11.2018 01:00 10,6 C 79 % 1029,8 hPa 0,0 l/m 4,6 km/h N 7,1 C 10,6 C 17,3 km/h
14.11.2018 02:00 10,4 C 77 % 1030,0 hPa 0,0 l/m 4,9 km/h N 6,5 C 10,3 C 16,5 km/h
14.11.2018 03:00 9,9 C 76 % 1030,0 hPa 0,0 l/m 3,3 km/h N 5,9 C 9,9 C 13,3 km/h
14.11.2018 04:00 9,4 C 77 % 1030,1 hPa 0,0 l/m 1,4 km/h N 5,5 C 9,4 C 7,6 km/h
14.11.2018 05:00 8,6 C 78 % 1030,3 hPa 0,0 l/m 0,5 km/h N 5,0 C 8,6 C 5,6 km/h
14.11.2018 06:00 8,0 C 80 % 1030,6 hPa 0,0 l/m 0,3 km/h N 4,7 C 8,0 C 4,0 km/h
14.11.2018 07:00 7,7 C 81 % 1030,9 hPa 0,0 l/m 0,5 km/h N 4,7 C 7,7 C 5,2 km/h
14.11.2018 08:00 8,8 C 81 % 1031,2 hPa 0,0 l/m 1,8 km/h N 5,7 C 8,8 C 7,6 km/h
14.11.2018 09:00 10,4 C 77 % 1031,0 hPa 0,0 l/m 5,8 km/h N 6,5 C 10,1 C 15,3 km/h
14.11.2018 10:00 11,2 C 73 % 1030,9 hPa 0,0 l/m 4,4 km/h N 6,5 C 11,2 C 14,1 km/h
14.11.2018 11:00 11,8 C 70 % 1030,6 hPa 0,0 l/m 3,2 km/h N 6,4 C 11,8 C 12,9 km/h
14.11.2018 12:00 12,3 C 67 % 1030,0 hPa 0,0 l/m 2,6 km/h N 6,2 C 12,3 C 10,1 km/h
14.11.2018 13:00 12,6 C 65 % 1029,3 hPa 0,0 l/m 4,1 km/h N 6,1 C 12,6 C 13,3 km/h
14.11.2018 14:00 13,1 C 62 % 1028,9 hPa 0,0 l/m 3,6 km/h N 6,0 C 13,1 C 11,3 km/h
14.11.2018 15:00 12,4 C 65 % 1029,1 hPa 0,0 l/m 2,5 km/h N 6,0 C 12,4 C 8,4 km/h
14.11.2018 16:00 11,0 C 67 % 1029,3 hPa 0,0 l/m 0,4 km/h N 5,1 C 11,0 C 3,2 km/h
14.11.2018 17:00 8,5 C 72 % 1029,6 hPa 0,0 l/m 0,0 km/h N 3,7 C 8,5 C 0,0 km/h
14.11.2018 18:00 6,1 C 77 % 1029,9 hPa 0,0 l/m 0,0 km/h N 2,5 C 6,1 C 0,0 km/h
14.11.2018 19:00 4,8 C 80 % 1030,0 hPa 0,0 l/m 0,0 km/h N 1,6 C 4,8 C 0,0 km/h
14.11.2018 20:00 3,9 C 81 % 1030,3 hPa 0,0 l/m 0,0 km/h N 1,0 C 3,9 C 0,0 km/h
14.11.2018 21:00 3,2 C 82 % 1030,3 hPa 0,0 l/m 0,0 km/h N 0,4 C 3,2 C 0,0 km/h
14.11.2018 22:00 3,1 C 82 % 1030,5 hPa 0,0 l/m 0,0 km/h N 0,3 C 3,1 C 0,4 km/h
14.11.2018 23:00 3,0 C 81 % 1030,4 hPa 0,0 l/m 0,0 km/h N 0,1 C 3,0 C 0,0 km/h
15.11.2018 00:00 3,2 C 81 % 1030,0 hPa 0,0 l/m 0,0 km/h N 0,3 C 3,2 C 1,2 km/h
15.11.2018 01:00 3,1 C 81 % 1029,8 hPa 0,0 l/m 0,0 km/h N 0,1 C 3,1 C 1,2 km/h
15.11.2018 02:00 2,1 C 81 % 1029,8 hPa 0,0 l/m 0,0 km/h N -0,8 C 2,1 C 0,4 km/h
15.11.2018 03:00 1,8 C 81 % 1029,6 hPa 0,0 l/m 0,0 km/h N -1,1 C 1,8 C 0,4 km/h
15.11.2018 04:00 2,5 C 82 % 1029,6 hPa 0,0 l/m 0,1 km/h N -0,3 C 2,5 C 1,6 km/h
15.11.2018 05:00 2,2 C 82 % 1029,8 hPa 0,0 l/m 0,0 km/h N -0,6 C 2,2 C 1,2 km/h
15.11.2018 06:00 1,8 C 82 % 1030,0 hPa 0,0 l/m 0,1 km/h N -0,9 C 1,8 C 0,8 km/h
15.11.2018 07:00 2,3 C 82 % 1030,4 hPa 0,0 l/m 0,1 km/h N -0,4 C 2,3 C 1,6 km/h
15.11.2018 08:00 3,5 C 82 % 1030,7 hPa 0,0 l/m 0,0 km/h N 0,7 C 3,5 C 0,4 km/h
15.11.2018 09:00 5,1 C 82 % 1030,5 hPa 0,0 l/m 0,3 km/h N 2,3 C 5,1 C 1,6 km/h
15.11.2018 10:00 6,3 C 82 % 1030,3 hPa 0,0 l/m 0,8 km/h N 3,3 C 6,3 C 5,2 km/h
15.11.2018 11:00 7,8 C 80 % 1029,9 hPa 0,0 l/m 1,0 km/h N 4,7 C 7,8 C 5,2 km/h
15.11.2018 12:00 9,4 C 74 % 1029,3 hPa 0,0 l/m 0,3 km/h N 5,0 C 9,4 C 4,4 km/h
15.11.2018 13:00 10,0 C 70 % 1028,8 hPa 0,0 l/m 0,2 km/h N 4,8 C 10,0 C 2,8 km/h
15.11.2018 14:00 10,7 C 65 % 1028,7 hPa 0,0 l/m 0,4 km/h N 4,5 C 10,7 C 5,2 km/h
15.11.2018 15:00 10,5 C 64 % 1028,7 hPa 0,0 l/m 0,0 km/h N 3,9 C 10,5 C 2,8 km/h
15.11.2018 16:00 8,5 C 67 % 1028,8 hPa 0,0 l/m 0,0 km/h N 2,7 C 8,5 C 0,4 km/h
15.11.2018 17:00 5,9 C 74 % 1029,3 hPa 0,0 l/m 0,0 km/h N 1,5 C 5,9 C 0,4 km/h
15.11.2018 18:00 4,4 C 79 % 1029,4 hPa 0,0 l/m 0,0 km/h N 1,1 C 4,4 C 0,4 km/h
15.11.2018 19:00 3,8 C 81 % 1029,5 hPa 0,0 l/m 0,0 km/h N 0,8 C 3,8 C 0,8 km/h
15.11.2018 20:00 2,7 C 81 % 1029,8 hPa 0,0 l/m 0,0 km/h N -0,2 C 2,7 C 0,0 km/h
15.11.2018 21:00 2,1 C 82 % 1030,0 hPa 0,0 l/m 0,0 km/h N -0,6 C 2,1 C 0,0 km/h
15.11.2018 22:00 1,6 C 82 % 1030,0 hPa 0,0 l/m 0,0 km/h N -1,2 C 1,6 C 0,0 km/h
15.11.2018 23:00 0,9 C 82 % 1030,5 hPa 0,0 l/m 0,0 km/h N -1,8 C 0,9 C 0,0 km/h
16.11.2018 00:00 0,7 C 82 % 1030,5 hPa 0,0 l/m 0,0 km/h N -2,1 C 0,7 C 0,0 km/h
16.11.2018 01:00 0,6 C 81 % 1030,5 hPa 0,0 l/m 0,0 km/h N -2,3 C 0,6 C 0,0 km/h
16.11.2018 02:00 -0,3 C 82 % 1030,6 hPa 0,0 l/m 0,0 km/h N -3,1 C -0,3 C 0,0 km/h
16.11.2018 03:00 -1,0 C 82 % 1030,7 hPa 0,0 l/m 0,0 km/h N -3,8 C -1,0 C 0,0 km/h
16.11.2018 04:00 -1,4 C 82 % 1031,2 hPa 0,0 l/m 0,0 km/h N -4,1 C -1,4 C 0,0 km/h
16.11.2018 05:00 -1,2 C 82 % 1031,3 hPa 0,0 l/m 0,0 km/h N -3,9 C -1,2 C 0,4 km/h
16.11.2018 06:00 -1,3 C 82 % 1031,6 hPa 0,0 l/m 0,0 km/h N -3,9 C -1,3 C 0,0 km/h
16.11.2018 07:00 -1,4 C 82 % 1032,3 hPa 0,0 l/m 0,0 km/h N -4,1 C -1,4 C 0,0 km/h
16.11.2018 08:00 -0,9 C 82 % 1032,8 hPa 0,0 l/m 0,0 km/h N -3,6 C -0,9 C 0,0 km/h
16.11.2018 09:00 1,3 C 83 % 1033,2 hPa 0,3 l/m 0,0 km/h N -1,3 C 1,3 C 0,0 km/h
16.11.2018 10:00 3,6 C 82 % 1033,3 hPa 0,0 l/m 0,1 km/h N 0,8 C 3,6 C 2,4 km/h
16.11.2018 11:00 5,1 C 82 % 1033,0 hPa 0,0 l/m 0,5 km/h N 2,3 C 5,1 C 5,6 km/h
16.11.2018 12:00 6,7 C 81 % 1032,5 hPa 0,0 l/m 0,3 km/h N 3,7 C 6,7 C 4,4 km/h
16.11.2018 13:00 8,1 C 77 % 1032,1 hPa 0,0 l/m 0,0 km/h N 4,3 C 8,1 C 2,0 km/h
16.11.2018 14:00 9,2 C 70 % 1032,2 hPa 0,0 l/m 0,1 km/h N 3,9 C 9,2 C 3,6 km/h
16.11.2018 15:00 9,0 C 69 % 1032,0 hPa 0,0 l/m 0,0 km/h N 3,5 C 9,0 C 0,8 km/h
16.11.2018 16:00 6,8 C 71 % 1032,0 hPa 0,0 l/m 0,0 km/h N 1,8 C 6,8 C 0,0 km/h
16.11.2018 17:00 4,2 C 76 % 1032,3 hPa 0,0 l/m 0,0 km/h N 0,2 C 4,2 C 0,0 km/h
16.11.2018 18:00 2,6 C 79 % 1032,5 hPa 0,0 l/m 0,0 km/h N -0,6 C 2,6 C 0,4 km/h
16.11.2018 19:00 1,6 C 81 % 1032,8 hPa 0,0 l/m 0,0 km/h N -1,3 C 1,6 C 0,0 km/h
16.11.2018 20:00 1,0 C 82 % 1033,0 hPa 0,0 l/m 0,0 km/h N -1,8 C 1,0 C 0,0 km/h
16.11.2018 21:00 0,9 C 82 % 1032,9 hPa 0,0 l/m 0,0 km/h N -1,9 C 0,9 C 0,0 km/h
16.11.2018 22:00 0,7 C 82 % 1032,6 hPa 0,0 l/m 0,0 km/h N -2,1 C 0,7 C 1,2 km/h
16.11.2018 23:00 0,0 C 82 % 1032,6 hPa 0,0 l/m 0,0 km/h N -2,7 C 0,0 C 0,4 km/h
17.11.2018 00:00 -0,8 C 82 % 1032,6 hPa 0,0 l/m 0,0 km/h N -3,5 C -0,8 C 0,4 km/h
17.11.2018 01:00 -1,2 C 82 % 1032,8 hPa 0,0 l/m 0,0 km/h N -3,9 C -1,2 C 0,0 km/h
17.11.2018 02:00 -1,6 C 82 % 1032,8 hPa 0,0 l/m 0,0 km/h N -4,3 C -1,6 C 0,0 km/h
17.11.2018 03:00 -1,8 C 82 % 1032,9 hPa 0,0 l/m 0,0 km/h N -4,5 C -1,8 C 0,0 km/h
17.11.2018 04:00 -2,0 C 82 % 1032,9 hPa 0,0 l/m 0,0 km/h N -4,7 C -2,0 C 0,0 km/h
17.11.2018 05:00 -2,3 C 82 % 1032,7 hPa 0,0 l/m 0,0 km/h N -5,0 C -2,3 C 0,0 km/h
17.11.2018 06:00 -2,3 C 82 % 1032,9 hPa 0,0 l/m 0,0 km/h N -4,9 C -2,3 C 0,0 km/h
17.11.2018 07:00 -2,8 C 82 % 1033,6 hPa 0,0 l/m 0,0 km/h N -5,4 C -2,8 C 0,0 km/h
17.11.2018 08:00 -2,1 C 82 % 1033,8 hPa 0,0 l/m 0,0 km/h N -4,7 C -2,1 C 0,0 km/h
17.11.2018 09:00 0,2 C 82 % 1033,5 hPa 0,0 l/m 0,3 km/h N -2,5 C 0,2 C 3,2 km/h
17.11.2018 10:00 1,4 C 82 % 1033,8 hPa 0,3 l/m 0,0 km/h N -1,4 C 1,4 C 1,6 km/h
17.11.2018 11:00 2,2 C 82 % 1033,3 hPa 0,0 l/m 0,2 km/h N -0,6 C 2,2 C 4,0 km/h
17.11.2018 12:00 4,0 C 79 % 1032,6 hPa 0,0 l/m 0,7 km/h N 0,6 C 4,0 C 5,2 km/h
17.11.2018 13:00 5,6 C 69 % 1032,3 hPa 0,0 l/m 0,2 km/h N 0,3 C 5,6 C 4,4 km/h
17.11.2018 14:00 6,5 C 64 % 1032,1 hPa 0,0 l/m 0,6 km/h N 0,2 C 6,5 C 4,8 km/h
17.11.2018 15:00 6,2 C 63 % 1031,9 hPa 0,0 l/m 0,1 km/h N -0,4 C 6,2 C 2,4 km/h
17.11.2018 16:00 4,3 C 65 % 1032,2 hPa 0,0 l/m 0,1 km/h N -1,6 C 4,3 C 0,8 km/h
17.11.2018 17:00 2,3 C 71 % 1032,4 hPa 0,0 l/m 0,0 km/h N -2,4 C 2,3 C 0,8 km/h
17.11.2018 18:00 1,0 C 77 % 1032,5 hPa 0,0 l/m 0,0 km/h N -2,6 C 1,0 C 0,4 km/h
17.11.2018 19:00 0,6 C 80 % 1031,9 hPa 0,0 l/m 0,1 km/h N -2,5 C 0,6 C 1,6 km/h
17.11.2018 20:00 0,7 C 80 % 1031,6 hPa 0,0 l/m 0,0 km/h N -2,4 C 0,7 C 0,4 km/h
17.11.2018 21:00 -0,0 C 81 % 1031,6 hPa 0,0 l/m 0,0 km/h N -2,9 C -0,0 C 1,2 km/h
17.11.2018 22:00 -0,8 C 81 % 1031,6 hPa 0,0 l/m 0,0 km/h N -3,7 C -0,8 C 0,8 km/h
17.11.2018 23:00 -1,0 C 82 % 1031,6 hPa 0,0 l/m 0,0 km/h N -3,7 C -1,0 C 0,0 km/h
18.11.2018 00:00 -0,3 C 82 % 1031,2 hPa 0,0 l/m 0,0 km/h N -3,0 C -0,3 C 0,0 km/h
18.11.2018 01:00 0,5 C 82 % 1030,8 hPa 0,0 l/m 0,4 km/h N -2,2 C 0,5 C 3,6 km/h
18.11.2018 02:00 0,9 C 81 % 1030,6 hPa 0,0 l/m 0,4 km/h N -2,0 C 0,9 C 4,4 km/h
18.11.2018 03:00 0,7 C 78 % 1030,1 hPa 0,0 l/m 0,1 km/h N -2,7 C 0,7 C 2,0 km/h
18.11.2018 04:00 0,2 C 78 % 1029,6 hPa 0,0 l/m 0,0 km/h N -3,2 C 0,2 C 0,8 km/h
18.11.2018 05:00 -0,6 C 80 % 1029,3 hPa 0,0 l/m 0,0 km/h N -3,7 C -0,6 C 0,8 km/h
18.11.2018 06:00 -1,5 C 81 % 1028,9 hPa 0,0 l/m 0,0 km/h N -4,4 C -1,5 C 0,0 km/h
18.11.2018 07:00 -2,1 C 82 % 1028,8 hPa 0,0 l/m 0,0 km/h N -4,8 C -2,1 C 0,4 km/h
18.11.2018 08:00 -1,8 C 82 % 1028,6 hPa 0,0 l/m 0,1 km/h N -4,5 C -1,8 C 0,8 km/h
18.11.2018 09:00 -0,4 C 82 % 1028,0 hPa 0,0 l/m 0,2 km/h N -3,2 C -0,4 C 2,8 km/h
18.11.2018 10:00 1,0 C 76 % 1027,2 hPa 0,0 l/m 1,0 km/h N -2,8 C 1,0 C 5,6 km/h
18.11.2018 11:00 2,2 C 70 % 1026,7 hPa 0,0 l/m 2,5 km/h N -2,7 C 2,2 C 7,2 km/h
18.11.2018 12:00 2,8 C 69 % 1025,7 hPa 0,0 l/m 1,6 km/h N -2,3 C 2,8 C 6,0 km/h
18.11.2018 13:00 3,5 C 68 % 1024,7 hPa 0,0 l/m 2,9 km/h N -2,0 C 3,5 C 8,9 km/h
18.11.2018 14:00 3,6 C 67 % 1023,4 hPa 0,0 l/m 1,3 km/h N -1,9 C 3,6 C 6,8 km/h
18.11.2018 15:00 3,2 C 68 % 1022,7 hPa 0,0 l/m 1,6 km/h N -2,2 C 3,2 C 5,6 km/h
18.11.2018 16:00 2,8 C 70 % 1022,3 hPa 0,0 l/m 0,6 km/h N -2,0 C 2,8 C 4,0 km/h
18.11.2018 17:00 2,5 C 72 % 1021,8 hPa 0,0 l/m 0,9 km/h N -2,0 C 2,5 C 6,8 km/h
18.11.2018 18:00 2,5 C 72 % 1021,0 hPa 0,0 l/m 1,8 km/h N -2,0 C 2,5 C 6,8 km/h
18.11.2018 19:00 2,3 C 73 % 1020,5 hPa 0,0 l/m 1,5 km/h N -2,1 C 2,3 C 8,9 km/h
18.11.2018 20:00 1,9 C 74 % 1020,0 hPa 0,0 l/m 1,8 km/h N -2,2 C 1,9 C 8,5 km/h
18.11.2018 21:00 1,3 C 79 % 1019,7 hPa 0,0 l/m 1,1 km/h N -2,0 C 1,3 C 7,6 km/h
18.11.2018 22:00 1,3 C 81 % 1018,9 hPa 0,0 l/m 1,6 km/h N -1,7 C 1,3 C 10,4 km/h
18.11.2018 23:00 1,0 C 81 % 1018,6 hPa 0,0 l/m 1,1 km/h N -1,8 C 1,0 C 6,0 km/h
Min-Datum _ 17.11.18 14.11.18 18.11.18 - 12.11.18 - 17.11.18 17.11.18 12.11.18
_ Min-Zeit 07:30 14:30 23:45 - 00:00 - 07:30 07:30 00:00
Minimum _ -2,9 C 61 % 1018,4 hPa - 0,0 km/h - -5,5 C -2,9 C 0,0 km/h
Max-Datum _ 13.11.18 12.11.18 17.11.18 12.11.18 13.11.18 - 13.11.18 13.11.18 13.11.18
_ Max-Zeit 19:30 12:45 08:00 09:00 17:00 - 17:00 20:00 16:45
Maximum _ 13,8 C 83 % 1033,9 hPa 0,3 l/m 12,2 km/h
N
- 9,1 C 13,7 C 40,2 km/h
N
Durchschnitt _ 5,2 C 78 % 1028,2 hPa #1,0 l/m 1,0 km/h N 1,7 C 5,1 C 4,0 km/h